createdAt,value
2022-12-22T00:00:19.887Z,2.70
2022-12-22T00:03:06.056Z,2.70
2022-12-22T00:05:51.794Z,2.80
2022-12-22T00:08:37.703Z,2.70
2022-12-22T00:11:30.061Z,2.70
2022-12-22T00:14:16.565Z,2.73
2022-12-22T00:17:02.669Z,2.77
2022-12-22T00:19:48.712Z,2.70
2022-12-22T00:22:42.550Z,2.70
2022-12-22T00:25:34.479Z,2.70
2022-12-22T00:28:28.993Z,2.70
2022-12-22T00:31:14.916Z,2.70
2022-12-22T00:34:00.749Z,2.70
2022-12-22T00:36:47.476Z,2.60
2022-12-22T00:39:34.467Z,2.70
2022-12-22T00:42:20.195Z,2.70
2022-12-22T00:45:05.930Z,2.70
2022-12-22T00:47:51.831Z,2.67
2022-12-22T00:50:37.922Z,2.70
2022-12-22T00:53:24.346Z,2.70
2022-12-22T00:56:10.309Z,2.70
2022-12-22T00:59:02.180Z,2.70
2022-12-22T01:01:48.029Z,2.70
2022-12-22T01:04:34.034Z,2.77
2022-12-22T01:07:19.851Z,2.70
2022-12-22T01:10:11.007Z,2.73
2022-12-22T01:12:59.818Z,2.70
2022-12-22T01:15:48.257Z,2.70
2022-12-22T01:18:35.183Z,2.73
2022-12-22T01:21:22.393Z,2.77
2022-12-22T01:24:08.300Z,2.73
2022-12-22T01:26:54.266Z,2.70
2022-12-22T01:29:40.086Z,2.77
2022-12-22T01:32:32.890Z,2.73
2022-12-22T01:35:18.774Z,2.77
2022-12-22T01:38:04.515Z,2.80
2022-12-22T01:40:50.272Z,2.70
2022-12-22T01:43:46.111Z,2.80
2022-12-22T01:47:02.491Z,2.70
2022-12-22T01:49:59.906Z,2.80
2022-12-22T01:52:53.764Z,2.70
2022-12-22T01:55:43.444Z,2.80
2022-12-22T01:58:53.019Z,2.70
2022-12-22T02:01:39.042Z,2.70
2022-12-22T02:04:24.863Z,2.70
2022-12-22T02:07:17.910Z,2.70
2022-12-22T02:10:43.923Z,2.77
2022-12-22T02:13:52.671Z,2.80
2022-12-22T02:17:05.119Z,2.70
2022-12-22T02:20:20.543Z,2.80
2022-12-22T02:23:45.718Z,2.70
2022-12-22T02:26:45.121Z,2.80
2022-12-22T02:29:37.015Z,2.70
2022-12-22T02:32:23.281Z,2.70
2022-12-22T02:35:09.134Z,2.70
2022-12-22T02:38:41.525Z,2.70
2022-12-22T02:42:08.911Z,2.70
2022-12-22T02:45:38.142Z,2.70
2022-12-22T02:48:35.710Z,2.70
2022-12-22T02:51:34.267Z,2.70
2022-12-22T02:54:22.005Z,2.77
2022-12-22T02:57:07.778Z,2.80
2022-12-22T02:59:53.512Z,2.70
2022-12-22T03:02:39.549Z,2.70
2022-12-22T03:05:25.491Z,2.67
2022-12-22T03:08:11.200Z,2.70
2022-12-22T03:10:56.943Z,2.70
2022-12-22T03:13:42.646Z,2.67
2022-12-22T03:16:28.425Z,2.70
2022-12-22T03:19:14.309Z,2.80
2022-12-22T03:22:00.056Z,2.70
2022-12-22T03:24:45.869Z,2.70
2022-12-22T03:27:12.930Z,2.60
2022-12-22T03:29:39.949Z,2.70
2022-12-22T03:32:07.082Z,2.70
2022-12-22T03:34:34.060Z,2.70
2022-12-22T03:37:01.468Z,2.70
2022-12-22T03:39:28.883Z,2.70
2022-12-22T03:42:14.644Z,2.80
2022-12-22T03:45:00.652Z,2.67
2022-12-22T03:47:27.707Z,2.80
2022-12-22T03:49:54.905Z,2.70
2022-12-22T03:52:21.929Z,2.70
2022-12-22T03:54:48.903Z,2.70
2022-12-22T03:57:15.961Z,2.70
2022-12-22T03:59:42.963Z,2.73
2022-12-22T04:02:10.075Z,2.70
2022-12-22T04:04:37.073Z,2.80
2022-12-22T04:07:04.365Z,2.67
2022-12-22T04:09:31.369Z,2.70
2022-12-22T04:12:17.937Z,2.73
2022-12-22T04:14:44.940Z,2.63
2022-12-22T04:17:12.420Z,2.73
2022-12-22T04:19:39.403Z,2.70
2022-12-22T04:22:07.131Z,2.70
2022-12-22T04:24:34.591Z,2.70
2022-12-22T04:27:01.548Z,2.80
2022-12-22T04:29:29.005Z,2.70
2022-12-22T04:31:56.095Z,2.70
2022-12-22T04:34:23.236Z,2.67
2022-12-22T04:36:50.219Z,2.70
2022-12-22T04:39:17.206Z,2.70
2022-12-22T04:41:44.595Z,2.70
2022-12-22T04:44:11.635Z,2.77
2022-12-22T04:46:38.592Z,2.63
2022-12-22T04:49:05.583Z,2.73
2022-12-22T04:51:32.628Z,2.70
2022-12-22T04:53:59.816Z,2.70
2022-12-22T04:56:27.208Z,2.63
2022-12-22T04:58:54.599Z,2.70
2022-12-22T05:01:21.735Z,2.60
2022-12-22T05:03:48.845Z,2.60
2022-12-22T05:06:16.361Z,2.63
2022-12-22T05:08:43.410Z,2.70
2022-12-22T05:11:11.027Z,2.70
2022-12-22T05:13:38.467Z,2.60
2022-12-22T05:16:14.464Z,2.80
2022-12-22T05:18:44.646Z,2.70
2022-12-22T05:21:18.403Z,2.70
2022-12-22T05:23:46.082Z,2.67
2022-12-22T05:26:14.628Z,2.70
2022-12-22T05:28:44.814Z,2.70
2022-12-22T05:31:23.789Z,2.70
2022-12-22T05:33:51.576Z,2.70
2022-12-22T05:36:19.614Z,2.80
2022-12-22T05:38:46.662Z,2.73
2022-12-22T05:41:14.066Z,2.60
2022-12-22T05:43:41.443Z,2.70
2022-12-22T05:46:12.186Z,2.70
2022-12-22T05:48:40.240Z,2.73
2022-12-22T05:51:09.943Z,2.70
2022-12-22T05:53:38.691Z,2.70
2022-12-22T05:56:07.329Z,2.70
2022-12-22T05:58:37.768Z,2.67
2022-12-22T06:01:05.712Z,2.77
2022-12-22T06:03:33.390Z,2.70
2022-12-22T06:06:00.785Z,2.67
2022-12-22T06:08:28.434Z,2.80
2022-12-22T06:10:58.503Z,2.67
2022-12-22T06:13:26.989Z,2.67
2022-12-22T06:15:53.979Z,2.60
2022-12-22T06:18:21.616Z,2.67
2022-12-22T06:20:52.414Z,2.73
2022-12-22T06:23:20.639Z,2.70
2022-12-22T06:26:02.395Z,2.60
2022-12-22T06:28:31.157Z,2.60
2022-12-22T06:30:58.297Z,2.70
2022-12-22T06:33:25.709Z,2.70
2022-12-22T06:35:58.695Z,2.60
2022-12-22T06:38:28.210Z,2.60
2022-12-22T06:40:55.484Z,2.60
2022-12-22T06:43:22.919Z,2.70
2022-12-22T06:45:50.312Z,2.70
2022-12-22T06:48:17.393Z,2.60
2022-12-22T06:50:45.078Z,2.63
2022-12-22T06:53:13.026Z,2.60
2022-12-22T06:55:40.462Z,2.60
2022-12-22T06:58:08.101Z,2.60
2022-12-22T07:00:35.583Z,2.77
2022-12-22T07:03:03.146Z,2.60
2022-12-22T07:05:31.673Z,2.63
2022-12-22T07:08:05.787Z,2.73
2022-12-22T07:10:54.133Z,2.63
2022-12-22T07:13:21.760Z,2.70
2022-12-22T07:15:55.569Z,2.60
2022-12-22T07:18:32.575Z,2.63
2022-12-22T07:21:02.638Z,2.60
2022-12-22T07:23:30.553Z,2.60
2022-12-22T07:25:58.418Z,2.70
2022-12-22T07:28:26.160Z,2.63
2022-12-22T07:30:54.705Z,2.70
2022-12-22T07:33:21.789Z,2.63
2022-12-22T07:35:49.377Z,2.70
2022-12-22T07:38:16.769Z,2.70
2022-12-22T07:40:46.758Z,2.57
2022-12-22T07:43:18.413Z,2.77
2022-12-22T07:45:45.796Z,2.70
2022-12-22T07:48:32.206Z,2.63
2022-12-22T07:51:06.074Z,2.60
2022-12-22T07:53:34.760Z,2.70
2022-12-22T07:56:05.016Z,2.60
2022-12-22T07:58:32.305Z,2.60
2022-12-22T08:01:01.538Z,2.63
2022-12-22T08:03:28.948Z,2.60
2022-12-22T08:05:56.417Z,2.70
2022-12-22T08:08:24.906Z,2.70
2022-12-22T08:10:52.368Z,2.60
2022-12-22T08:13:20.424Z,2.70
2022-12-22T08:15:48.135Z,2.70
2022-12-22T08:18:16.437Z,2.60
2022-12-22T08:20:52.014Z,2.67
2022-12-22T08:23:19.642Z,2.63
2022-12-22T08:25:56.273Z,2.60
2022-12-22T08:28:23.899Z,2.60
2022-12-22T08:30:51.342Z,2.60
2022-12-22T08:33:18.874Z,2.70
2022-12-22T08:35:45.937Z,2.63
2022-12-22T08:38:14.745Z,2.60
2022-12-22T08:40:45.198Z,2.60
2022-12-22T08:43:13.021Z,2.60
2022-12-22T08:45:42.579Z,2.53
2022-12-22T08:48:10.837Z,2.70
2022-12-22T08:50:38.415Z,2.53
2022-12-22T08:53:23.737Z,2.60
2022-12-22T08:55:57.268Z,2.60
2022-12-22T08:58:24.654Z,2.57
2022-12-22T09:03:34.852Z,2.60
2022-12-22T09:06:03.276Z,2.60
2022-12-22T09:08:30.734Z,2.60
2022-12-22T09:11:03.996Z,2.70
2022-12-22T09:13:31.446Z,2.60
2022-12-22T09:15:58.904Z,2.63
2022-12-22T09:18:26.323Z,2.60
2022-12-22T09:20:56.694Z,2.70
2022-12-22T09:23:23.701Z,2.60
2022-12-22T09:25:51.390Z,2.67
2022-12-22T09:28:19.020Z,2.60
2022-12-22T09:30:53.611Z,2.70
2022-12-22T09:33:20.587Z,2.60
2022-12-22T09:35:47.978Z,2.90
2022-12-22T09:38:15.015Z,2.80
2022-12-22T09:40:42.534Z,2.70
2022-12-22T09:43:17.349Z,2.80
2022-12-22T09:45:45.568Z,3.00
2022-12-22T09:48:17.152Z,2.90
2022-12-22T09:50:48.603Z,3.13
2022-12-22T09:53:24.307Z,3.30
2022-12-22T09:55:52.527Z,3.17
2022-12-22T09:58:30.046Z,3.90
2022-12-22T10:01:42.755Z,3.43
2022-12-22T10:05:01.775Z,3.23
2022-12-22T10:07:39.067Z,3.20
2022-12-22T10:10:30.694Z,3.13
2022-12-22T10:13:04.592Z,3.37
2022-12-22T10:15:41.023Z,3.43
2022-12-22T10:18:28.566Z,3.27
2022-12-22T10:21:15.052Z,3.10
2022-12-22T10:23:48.636Z,3.40
2022-12-22T10:26:33.915Z,3.30
2022-12-22T10:29:11.073Z,3.03
2022-12-22T10:32:11.945Z,3.00
2022-12-22T10:35:06.220Z,2.87
2022-12-22T10:37:38.836Z,2.83
2022-12-22T10:40:22.842Z,2.90
2022-12-22T10:42:59.415Z,2.90
2022-12-22T10:45:28.112Z,2.67
2022-12-22T10:47:58.982Z,2.67
2022-12-22T10:50:26.631Z,2.80
2022-12-22T10:52:58.485Z,2.63
2022-12-22T10:55:30.598Z,2.60
2022-12-22T10:58:21.777Z,2.57
2022-12-22T11:01:04.811Z,2.67
2022-12-22T11:03:32.986Z,2.70
2022-12-22T11:06:01.946Z,2.60
2022-12-22T11:08:35.066Z,2.70
2022-12-22T11:11:18.944Z,2.60
2022-12-22T11:14:56.841Z,2.70
2022-12-22T11:17:47.268Z,2.67
2022-12-22T11:21:02.853Z,2.80
2022-12-22T11:24:01.460Z,2.67
2022-12-22T11:26:55.745Z,2.60
2022-12-22T11:30:12.286Z,2.80
2022-12-22T11:33:28.807Z,2.87
2022-12-22T11:36:04.924Z,3.00
2022-12-22T11:38:46.515Z,2.87
2022-12-22T11:41:48.484Z,2.90
2022-12-22T11:44:23.199Z,2.87
2022-12-22T11:47:39.911Z,2.83
2022-12-22T11:51:00.834Z,2.90
2022-12-22T11:54:10.834Z,2.83
2022-12-22T11:56:43.073Z,2.87
2022-12-22T12:00:01.747Z,2.90
2022-12-22T12:03:52.775Z,2.90
2022-12-22T12:06:41.677Z,2.80
2022-12-22T12:09:22.489Z,2.87
2022-12-22T12:12:19.834Z,2.90
2022-12-22T12:15:11.691Z,2.70
2022-12-22T12:18:26.718Z,2.87
2022-12-22T12:21:38.609Z,3.00
2022-12-22T12:24:43.365Z,2.83
2022-12-22T12:27:57.350Z,2.83
2022-12-22T12:30:42.703Z,2.97
2022-12-22T12:33:49.737Z,3.17
2022-12-22T12:37:06.846Z,2.90
2022-12-22T12:39:50.777Z,2.87
2022-12-22T12:42:32.798Z,2.90
2022-12-22T12:45:02.527Z,2.87
2022-12-22T12:47:35.803Z,2.93
2022-12-22T12:50:35.508Z,2.90
2022-12-22T12:53:10.512Z,2.83
2022-12-22T12:55:52.888Z,2.90
2022-12-22T12:58:38.111Z,3.00
2022-12-22T13:01:26.070Z,2.83
2022-12-22T13:04:03.035Z,2.60
2022-12-22T13:06:51.278Z,2.80
2022-12-22T13:12:53.981Z,2.70
2022-12-22T13:15:34.611Z,2.80
2022-12-22T13:18:29.002Z,2.83
2022-12-22T13:21:50.836Z,2.80
2022-12-22T13:24:25.115Z,2.77
2022-12-22T13:26:55.738Z,2.70
2022-12-22T13:29:22.697Z,2.80
2022-12-22T13:32:17.428Z,2.73
2022-12-22T13:35:39.896Z,2.73
2022-12-22T13:38:31.018Z,2.67
2022-12-22T13:41:03.546Z,2.60
2022-12-22T13:43:33.309Z,2.60
2022-12-22T13:46:03.602Z,2.70
2022-12-22T13:48:52.908Z,2.70
2022-12-22T13:51:27.485Z,2.63
2022-12-22T13:54:11.647Z,2.70
2022-12-22T13:56:52.569Z,2.73
2022-12-22T13:59:43.352Z,2.63
2022-12-22T14:02:11.304Z,2.70
2022-12-22T14:04:43.118Z,2.60
2022-12-22T14:07:20.859Z,2.70
2022-12-22T14:09:51.264Z,2.70
2022-12-22T14:12:23.562Z,2.70
2022-12-22T14:14:54.106Z,2.60
2022-12-22T14:17:37.040Z,2.60
2022-12-22T14:20:23.289Z,2.70
2022-12-22T14:22:58.746Z,2.63
2022-12-22T14:25:40.351Z,2.57
2022-12-22T14:28:39.795Z,2.60
2022-12-22T14:31:07.974Z,2.60
2022-12-22T14:33:35.991Z,2.63
2022-12-22T14:36:20.616Z,2.60
2022-12-22T14:39:08.930Z,2.60
2022-12-22T14:41:51.552Z,2.60
2022-12-22T14:44:44.218Z,2.50
2022-12-22T14:47:17.839Z,2.60
2022-12-22T14:50:20.276Z,2.53
2022-12-22T14:53:00.038Z,2.63
2022-12-22T14:55:38.415Z,2.70
2022-12-22T14:58:26.358Z,2.57
2022-12-22T15:01:29.263Z,2.60
2022-12-22T15:04:05.429Z,2.70
2022-12-22T15:06:42.046Z,2.60
2022-12-22T15:10:13.315Z,2.67
2022-12-22T15:12:18.445Z,2.60
2022-12-22T15:14:48.628Z,2.60
2022-12-22T15:17:25.337Z,2.60
2022-12-22T15:19:58.653Z,2.60
2022-12-22T15:22:25.726Z,2.50
2022-12-22T15:24:52.777Z,2.53
2022-12-22T15:27:19.787Z,2.50
2022-12-22T15:29:46.744Z,2.60
2022-12-22T15:32:14.557Z,2.60
2022-12-22T15:34:41.654Z,2.70
2022-12-22T15:37:12.848Z,2.60
2022-12-22T15:39:40.496Z,2.60
2022-12-22T15:42:07.603Z,2.50
2022-12-22T15:44:38.689Z,2.60
2022-12-22T15:47:09.920Z,2.50
2022-12-22T15:49:37.383Z,2.60
2022-12-22T15:52:06.665Z,2.57
2022-12-22T15:54:33.791Z,2.63
2022-12-22T15:57:01.844Z,2.60
2022-12-22T15:59:29.934Z,2.60
2022-12-22T16:02:01.515Z,2.53
2022-12-22T16:04:29.954Z,2.60
2022-12-22T16:06:59.196Z,2.60
2022-12-22T16:09:38.060Z,2.57
2022-12-22T16:12:18.821Z,2.57
2022-12-22T16:14:52.127Z,2.70
2022-12-22T16:17:29.535Z,2.67
2022-12-22T16:19:56.565Z,2.60
2022-12-22T16:22:34.883Z,2.60
2022-12-22T16:25:06.978Z,2.60
2022-12-22T16:27:35.656Z,2.60
2022-12-22T16:30:03.411Z,2.60
2022-12-22T16:32:34.374Z,2.60
2022-12-22T16:35:22.669Z,2.53
2022-12-22T16:37:50.706Z,2.60
2022-12-22T16:40:19.346Z,2.60
2022-12-22T16:45:46.468Z,2.60
2022-12-22T16:48:21.807Z,2.60
2022-12-22T16:50:48.971Z,2.60
2022-12-22T16:53:16.261Z,2.60
2022-12-22T16:55:43.403Z,2.63
2022-12-22T16:58:14.147Z,2.57
2022-12-22T17:00:45.102Z,2.60
2022-12-22T17:03:42.950Z,2.60
2022-12-22T17:06:11.197Z,2.60
2022-12-22T17:08:43.039Z,2.60
2022-12-22T17:11:21.672Z,2.60
2022-12-22T17:13:52.592Z,2.60
2022-12-22T17:16:23.115Z,2.70
2022-12-22T17:18:50.425Z,2.60
2022-12-22T17:21:20.047Z,2.70
2022-12-22T17:23:52.425Z,2.60
2022-12-22T17:26:25.750Z,2.60
2022-12-22T17:28:53.421Z,2.57
2022-12-22T17:31:23.818Z,2.60
2022-12-22T17:33:51.104Z,2.63
2022-12-22T17:36:37.287Z,2.60
2022-12-22T17:39:05.253Z,2.53
2022-12-22T17:41:32.867Z,2.50
2022-12-22T17:44:00.037Z,2.60
2022-12-22T17:46:28.102Z,2.60
2022-12-22T17:48:55.203Z,2.57
2022-12-22T17:51:29.391Z,2.70
2022-12-22T17:53:59.044Z,2.60
2022-12-22T17:56:27.924Z,2.60
2022-12-22T17:58:55.371Z,2.60
2022-12-22T18:01:36.907Z,2.57
2022-12-22T18:04:04.604Z,2.70
2022-12-22T18:06:36.859Z,2.60
2022-12-22T18:09:05.215Z,2.67
2022-12-22T18:11:33.266Z,2.60
2022-12-22T18:14:00.925Z,2.60
2022-12-22T18:16:29.239Z,2.50
2022-12-22T18:18:56.819Z,2.60
2022-12-22T18:21:25.496Z,2.67
2022-12-22T18:23:53.573Z,2.63
2022-12-22T18:26:29.278Z,2.63
2022-12-22T18:28:57.191Z,2.60
2022-12-22T18:31:25.484Z,2.60
2022-12-22T18:33:53.127Z,2.60
2022-12-22T18:36:32.390Z,2.60
2022-12-22T18:39:01.998Z,2.63
2022-12-22T18:41:35.354Z,2.57
2022-12-22T18:44:02.641Z,2.60
2022-12-22T18:46:30.114Z,2.60
2022-12-22T18:49:03.459Z,2.60
2022-12-22T18:51:32.272Z,2.57
2022-12-22T18:53:59.651Z,2.60
2022-12-22T18:56:27.050Z,2.60
2022-12-22T18:58:54.035Z,2.60
2022-12-22T19:01:26.048Z,2.60
2022-12-22T19:03:57.106Z,2.60
2022-12-22T19:06:24.790Z,2.70
2022-12-22T19:08:52.046Z,2.67
2022-12-22T19:11:25.631Z,2.67
2022-12-22T19:13:52.985Z,2.60
2022-12-22T19:16:26.494Z,2.60
2022-12-22T19:18:54.039Z,2.70
2022-12-22T19:21:21.333Z,2.60
2022-12-22T19:23:48.970Z,2.60
2022-12-22T19:26:26.436Z,2.67
2022-12-22T19:29:00.946Z,2.80
2022-12-22T19:31:33.814Z,2.60
2022-12-22T19:34:05.721Z,2.53
2022-12-22T19:36:34.252Z,2.60
2022-12-22T19:39:05.016Z,2.70
2022-12-22T19:41:43.896Z,2.60
2022-12-22T19:44:21.489Z,2.60
2022-12-22T19:46:49.866Z,2.60
2022-12-22T19:49:22.140Z,2.60
2022-12-22T19:51:49.637Z,2.60
2022-12-22T19:54:19.233Z,2.60
2022-12-22T19:56:52.337Z,2.60
2022-12-22T19:59:46.981Z,2.57
2022-12-22T20:02:30.373Z,2.60
2022-12-22T20:04:58.767Z,2.60
2022-12-22T20:07:29.821Z,2.50
2022-12-22T20:09:57.410Z,2.53
2022-12-22T20:12:36.471Z,2.53
2022-12-22T20:15:28.612Z,2.60
2022-12-22T20:17:57.679Z,2.60
2022-12-22T20:20:36.661Z,2.60
2022-12-22T20:23:22.065Z,2.60
2022-12-22T20:25:59.796Z,2.60
2022-12-22T20:28:33.546Z,2.53
2022-12-22T20:31:02.460Z,2.70
2022-12-22T20:33:31.072Z,2.60
2022-12-22T20:36:01.008Z,2.50
2022-12-22T20:38:39.114Z,2.60
2022-12-22T20:41:09.689Z,2.60
2022-12-22T20:43:39.190Z,2.60
2022-12-22T20:46:17.441Z,2.60
2022-12-22T20:49:01.310Z,2.60
2022-12-22T20:51:34.049Z,2.63
2022-12-22T20:54:01.679Z,2.57
2022-12-22T20:56:39.586Z,2.60
2022-12-22T20:59:21.190Z,2.60
2022-12-22T21:01:51.897Z,2.53
2022-12-22T21:04:19.312Z,2.60
2022-12-22T21:06:52.867Z,2.63
2022-12-22T21:09:20.988Z,2.53
2022-12-22T21:11:48.084Z,2.60
2022-12-22T21:14:16.064Z,2.53
2022-12-22T21:16:43.655Z,2.60
2022-12-22T21:19:18.693Z,2.60
2022-12-22T21:21:46.956Z,2.63
2022-12-22T21:24:14.158Z,2.60
2022-12-22T21:26:47.529Z,2.67
2022-12-22T21:29:21.443Z,2.60
2022-12-22T21:31:48.497Z,2.70
2022-12-22T21:34:16.022Z,2.63
2022-12-22T21:36:46.881Z,2.60
2022-12-22T21:39:41.453Z,2.60
2022-12-22T21:42:15.248Z,2.60
2022-12-22T21:44:42.534Z,2.67
2022-12-22T21:47:14.755Z,2.60
2022-12-22T21:49:41.726Z,2.60
2022-12-22T21:52:09.805Z,2.63
2022-12-22T21:54:36.773Z,2.60
2022-12-22T21:57:04.420Z,2.67
2022-12-22T21:59:31.972Z,2.60
2022-12-22T22:01:59.463Z,2.60
2022-12-22T22:04:26.596Z,2.60
2022-12-22T22:06:53.541Z,2.60
2022-12-22T22:09:20.551Z,2.60
2022-12-22T22:12:06.199Z,2.57
2022-12-22T22:14:33.228Z,2.60
2022-12-22T22:17:00.645Z,2.60
2022-12-22T22:19:27.660Z,2.67
2022-12-22T22:21:54.636Z,2.70
2022-12-22T22:24:21.655Z,2.60
2022-12-22T22:26:50.317Z,2.67
2022-12-22T22:29:17.385Z,2.60
2022-12-22T22:31:44.547Z,2.63
2022-12-22T22:34:11.787Z,2.70
2022-12-22T22:36:38.758Z,2.60
2022-12-22T22:39:05.889Z,2.60
2022-12-22T22:41:39.276Z,2.60
2022-12-22T22:44:08.162Z,2.60
2022-12-22T22:46:35.170Z,2.67
2022-12-22T22:49:02.203Z,2.60
2022-12-22T22:51:29.213Z,2.70
2022-12-22T22:53:56.216Z,2.60
2022-12-22T22:56:23.238Z,2.60
2022-12-22T22:58:50.211Z,2.60
2022-12-22T23:01:17.598Z,2.60
2022-12-22T23:03:44.853Z,2.63
2022-12-22T23:06:13.970Z,2.60
2022-12-22T23:08:40.952Z,2.70
2022-12-22T23:11:14.354Z,2.60
2022-12-22T23:13:42.734Z,2.60
2022-12-22T23:16:10.419Z,2.60
2022-12-22T23:18:38.423Z,2.63
2022-12-22T23:21:08.760Z,2.63
2022-12-22T23:23:36.992Z,2.67
2022-12-22T23:26:04.663Z,2.60
2022-12-22T23:28:32.876Z,2.60
2022-12-22T23:30:59.911Z,2.63
2022-12-22T23:33:27.650Z,2.67
2022-12-22T23:35:55.038Z,2.70
2022-12-22T23:38:22.623Z,2.67
2022-12-22T23:40:53.158Z,2.60
2022-12-22T23:43:21.825Z,2.63
2022-12-22T23:45:48.819Z,2.70
2022-12-22T23:48:16.309Z,2.57
2022-12-22T23:50:47.369Z,2.57
2022-12-22T23:53:16.633Z,2.60
2022-12-22T23:55:50.038Z,2.60
2022-12-22T23:58:17.678Z,2.60
